Davis Field


Codes: KMKO/
Name: Davis Field
City: Muskogee
Country: United States
Elevation: 611 ft.

Photos at Davis Field


   Photos courtesy of SpottingLog. You can add your own sightings and photos by signing up for a free trial today.



No photos found.

Weather at Davis Field


Time (UTC)DescriptionTempratureWindCloud coverageVisibilityPressureHumidity
19-Apr-2024 06:00Overcast Clouds13°C13 mph, N100%10000m1020hPa78%
19-Apr-2024 09:00Overcast Clouds11°C16 mph, N88%10000m1020hPa71%
19-Apr-2024 12:00Scattered Clouds8°C13 mph, NE45%10000m1022hPa73%
19-Apr-2024 15:00Overcast Clouds13°C13 mph, NE88%10000m1024hPa48%
19-Apr-2024 18:00Overcast Clouds17°C11 mph, NE94%10000m1022hPa36%
19-Apr-2024 21:00Overcast Clouds20°C11 mph, NE91%10000m1020hPa33%
20-Apr-2024 00:00Broken Clouds17°C9 mph, NE83%10000m1020hPa50%
20-Apr-2024 03:00Overcast Clouds13°C9 mph, NE96%10000m1022hPa54%
20-Apr-2024 06:00Overcast Clouds11°C9 mph, NE96%10000m1022hPa55%
20-Apr-2024 09:00Overcast Clouds10°C9 mph, NE99%10000m1024hPa52%
20-Apr-2024 12:00Overcast Clouds11°C11 mph, NE100%10000m1025hPa48%
20-Apr-2024 15:00Overcast Clouds11°C4 mph, E100%10000m1026hPa55%
20-Apr-2024 18:00Overcast Clouds12°C7 mph, E100%10000m1026hPa55%
20-Apr-2024 21:00Overcast Clouds14°C7 mph, E100%10000m1025hPa50%
21-Apr-2024 00:00Overcast Clouds13°C4 mph, SE100%10000m1023hPa57%
21-Apr-2024 03:00Light Rain10°C2 mph, NW100%10000m1025hPa75%
21-Apr-2024 06:00Light Rain9°C9 mph, N100%10000m1026hPa82%
21-Apr-2024 09:00Overcast Clouds9°C7 mph, NE100%10000m1025hPa77%
21-Apr-2024 12:00Overcast Clouds9°C7 mph, NE99%10000m1026hPa75%
21-Apr-2024 15:00Overcast Clouds10°C7 mph, NE100%10000m1027hPa61%
21-Apr-2024 18:00Overcast Clouds12°C7 mph, NE100%10000m1026hPa49%
21-Apr-2024 21:00Scattered Clouds16°C4 mph, NW47%10000m1023hPa44%
22-Apr-2024 00:00Scattered Clouds14°C4 mph, NW27%10000m1022hPa58%
22-Apr-2024 03:00Clear Sky10°C2 mph, NW0%10000m1022hPa67%
22-Apr-2024 06:00Clear Sky8°C0 mph, NE0%10000m1022hPa75%
22-Apr-2024 09:00Clear Sky7°C4 mph, S0%10000m1021hPa82%
22-Apr-2024 12:00Clear Sky6°C4 mph, S0%10000m1020hPa86%
22-Apr-2024 15:00Clear Sky14°C9 mph, S0%10000m1020hPa59%
22-Apr-2024 18:00Clear Sky19°C13 mph, SW2%10000m1017hPa50%
22-Apr-2024 21:00Few Clouds22°C16 mph, SW14%10000m1013hPa48%
23-Apr-2024 00:00Few Clouds19°C13 mph, SW12%10000m1012hPa64%
23-Apr-2024 03:00Clear Sky14°C11 mph, SE0%10000m1013hPa83%
23-Apr-2024 06:00Clear Sky13°C13 mph, S2%10000m1012hPa85%
23-Apr-2024 09:00Clear Sky13°C11 mph, S3%10000m1011hPa89%
23-Apr-2024 12:00Light Rain13°C9 mph, S42%10000m1012hPa92%
23-Apr-2024 15:00Light Rain18°C11 mph, SW100%10000m1014hPa79%
23-Apr-2024 18:00Light Rain20°C7 mph, W99%10000m1014hPa73%
23-Apr-2024 21:00Light Rain16°C11 mph, N100%10000m1016hPa92%
24-Apr-2024 00:00Light Rain16°C7 mph, NE100%10000m1017hPa88%
24-Apr-2024 03:00Scattered Clouds13°C4 mph, NE39%10000m1020hPa93%